sensor_id;sensor_type;location;lat;lon;timestamp;temperature;humidity
64012;DHT22;50211;52.768;12.124;2022-09-12T00:01:21;12.80;99.90
64012;DHT22;50211;52.768;12.124;2022-09-12T00:03:53;12.80;99.90
64012;DHT22;50211;52.768;12.124;2022-09-12T00:06:26;12.80;99.90
64012;DHT22;50211;52.768;12.124;2022-09-12T00:08:56;12.70;99.90
64012;DHT22;50211;52.768;12.124;2022-09-12T00:11:22;12.70;99.90
64012;DHT22;50211;52.768;12.124;2022-09-12T00:13:48;12.70;99.90
64012;DHT22;50211;52.768;12.124;2022-09-12T00:16:19;12.60;99.90
64012;DHT22;50211;52.768;12.124;2022-09-12T00:18:46;12.60;99.90
64012;DHT22;50211;52.768;12.124;2022-09-12T00:21:13;12.50;99.90
64012;DHT22;50211;52.768;12.124;2022-09-12T00:23:38;12.50;99.90
64012;DHT22;50211;52.768;12.124;2022-09-12T00:26:05;12.40;99.90
64012;DHT22;50211;52.768;12.124;2022-09-12T00:28:33;12.30;99.90
64012;DHT22;50211;52.768;12.124;2022-09-12T00:30:59;12.30;99.90
64012;DHT22;50211;52.768;12.124;2022-09-12T00:33:29;12.30;99.90
64012;DHT22;50211;52.768;12.124;2022-09-12T00:35:55;12.30;99.90
64012;DHT22;50211;52.768;12.124;2022-09-12T00:38:20;12.30;99.90
64012;DHT22;50211;52.768;12.124;2022-09-12T00:40:47;12.30;99.90
64012;DHT22;50211;52.768;12.124;2022-09-12T00:46:01;12.30;99.90
64012;DHT22;50211;52.768;12.124;2022-09-12T00:48:35;12.30;99.90
64012;DHT22;50211;52.768;12.124;2022-09-12T00:51:04;12.30;99.90
64012;DHT22;50211;52.768;12.124;2022-09-12T00:53:30;12.30;99.90
64012;DHT22;50211;52.768;12.124;2022-09-12T00:55:56;12.20;99.90
64012;DHT22;50211;52.768;12.124;2022-09-12T00:58:25;12.20;99.90
64012;DHT22;50211;52.768;12.124;2022-09-12T01:00:52;12.20;99.90
64012;DHT22;50211;52.768;12.124;2022-09-12T01:03:19;12.10;99.90
64012;DHT22;50211;52.768;12.124;2022-09-12T01:08:19;12.10;99.90
64012;DHT22;50211;52.768;12.124;2022-09-12T01:10:45;12.10;99.90
64012;DHT22;50211;52.768;12.124;2022-09-12T01:13:10;12.00;99.90
64012;DHT22;50211;52.768;12.124;2022-09-12T01:15:39;11.90;99.90
64012;DHT22;50211;52.768;12.124;2022-09-12T01:21:13;11.80;99.90
64012;DHT22;50211;52.768;12.124;2022-09-12T01:24:28;11.90;99.90
64012;DHT22;50211;52.768;12.124;2022-09-12T01:27:21;11.90;99.90
64012;DHT22;50211;52.768;12.124;2022-09-12T01:33:04;11.90;99.90
64012;DHT22;50211;52.768;12.124;2022-09-12T01:41:25;11.80;99.90
64012;DHT22;50211;52.768;12.124;2022-09-12T01:44:13;11.70;99.90
64012;DHT22;50211;52.768;12.124;2022-09-12T01:47:01;11.60;99.90
64012;DHT22;50211;52.768;12.124;2022-09-12T01:52:11;11.50;99.90
64012;DHT22;50211;52.768;12.124;2022-09-12T01:54:49;11.50;99.90
64012;DHT22;50211;52.768;12.124;2022-09-12T01:57:23;11.50;99.90
64012;DHT22;50211;52.768;12.124;2022-09-12T01:59:53;11.50;99.90
64012;DHT22;50211;52.768;12.124;2022-09-12T02:02:38;11.40;99.90
64012;DHT22;50211;52.768;12.124;2022-09-12T02:05:09;11.40;99.90
64012;DHT22;50211;52.768;12.124;2022-09-12T02:07:45;11.40;99.90
64012;DHT22;50211;52.768;12.124;2022-09-12T02:10:15;11.40;99.90
64012;DHT22;50211;52.768;12.124;2022-09-12T02:12:48;11.40;99.90
64012;DHT22;50211;52.768;12.124;2022-09-12T02:15:18;11.40;99.90
64012;DHT22;50211;52.768;12.124;2022-09-12T02:17:48;11.40;99.90
64012;DHT22;50211;52.768;12.124;2022-09-12T02:20:22;11.40;99.90
64012;DHT22;50211;52.768;12.124;2022-09-12T02:22:51;11.30;99.90
64012;DHT22;50211;52.768;12.124;2022-09-12T02:25:18;11.40;99.90
64012;DHT22;50211;52.768;12.124;2022-09-12T02:27:48;11.40;99.90
64012;DHT22;50211;52.768;12.124;2022-09-12T02:30:15;11.30;99.90
64012;DHT22;50211;52.768;12.124;2022-09-12T02:33:04;11.30;99.90
64012;DHT22;50211;52.768;12.124;2022-09-12T02:35:45;11.30;99.90
64012;DHT22;50211;52.768;12.124;2022-09-12T02:38:49;11.30;99.90
64012;DHT22;50211;52.768;12.124;2022-09-12T02:41:18;11.30;99.90
64012;DHT22;50211;52.768;12.124;2022-09-12T02:43:45;11.20;99.90
64012;DHT22;50211;52.768;12.124;2022-09-12T02:46:36;11.20;99.90
64012;DHT22;50211;52.768;12.124;2022-09-12T02:49:02;11.20;99.90
64012;DHT22;50211;52.768;12.124;2022-09-12T02:51:28;11.20;99.90
64012;DHT22;50211;52.768;12.124;2022-09-12T02:53:54;11.10;99.90
64012;DHT22;50211;52.768;12.124;2022-09-12T02:56:26;11.10;99.90
64012;DHT22;50211;52.768;12.124;2022-09-12T02:58:53;11.10;99.90
64012;DHT22;50211;52.768;12.124;2022-09-12T03:01:41;11.10;99.90
64012;DHT22;50211;52.768;12.124;2022-09-12T03:10:15;11.20;99.90
64012;DHT22;50211;52.768;12.124;2022-09-12T03:12:52;11.20;99.90
64012;DHT22;50211;52.768;12.124;2022-09-12T03:18:14;11.20;99.90
64012;DHT22;50211;52.768;12.124;2022-09-12T03:24:12;11.00;99.90
64012;DHT22;50211;52.768;12.124;2022-09-12T03:26:57;10.90;99.90
64012;DHT22;50211;52.768;12.124;2022-09-12T03:29:25;11.00;99.90
64012;DHT22;50211;52.768;12.124;2022-09-12T03:31:56;11.00;99.90
64012;DHT22;50211;52.768;12.124;2022-09-12T03:34:24;10.90;99.90
64012;DHT22;50211;52.768;12.124;2022-09-12T03:36:50;10.90;99.90
64012;DHT22;50211;52.768;12.124;2022-09-12T03:39:16;10.90;99.90
64012;DHT22;50211;52.768;12.124;2022-09-12T03:41:42;10.90;99.90
64012;DHT22;50211;52.768;12.124;2022-09-12T03:44:08;10.90;99.90
64012;DHT22;50211;52.768;12.124;2022-09-12T03:46:34;10.80;99.90
64012;DHT22;50211;52.768;12.124;2022-09-12T03:49:00;10.70;99.90
64012;DHT22;50211;52.768;12.124;2022-09-12T03:51:25;10.60;99.90
64012;DHT22;50211;52.768;12.124;2022-09-12T03:53:53;10.60;99.90
64012;DHT22;50211;52.768;12.124;2022-09-12T03:56:19;10.50;99.90
64012;DHT22;50211;52.768;12.124;2022-09-12T03:58:45;10.40;99.90
64012;DHT22;50211;52.768;12.124;2022-09-12T04:01:13;10.40;99.90
64012;DHT22;50211;52.768;12.124;2022-09-12T04:03:40;10.30;99.90
64012;DHT22;50211;52.768;12.124;2022-09-12T04:06:06;10.40;99.90
64012;DHT22;50211;52.768;12.124;2022-09-12T04:08:33;10.40;99.90
64012;DHT22;50211;52.768;12.124;2022-09-12T04:11:08;10.40;99.90
64012;DHT22;50211;52.768;12.124;2022-09-12T04:13:35;10.40;99.90
64012;DHT22;50211;52.768;12.124;2022-09-12T04:16:01;10.40;99.90
64012;DHT22;50211;52.768;12.124;2022-09-12T04:18:26;10.40;99.90
64012;DHT22;50211;52.768;12.124;2022-09-12T04:20:52;10.50;99.90
64012;DHT22;50211;52.768;12.124;2022-09-12T04:23:20;10.40;99.90
64012;DHT22;50211;52.768;12.124;2022-09-12T04:25:56;10.40;99.90
64012;DHT22;50211;52.768;12.124;2022-09-12T04:28:22;10.40;99.90
64012;DHT22;50211;52.768;12.124;2022-09-12T04:30:48;10.40;99.90
64012;DHT22;50211;52.768;12.124;2022-09-12T04:33:14;10.40;99.90
64012;DHT22;50211;52.768;12.124;2022-09-12T04:35:39;10.30;99.90
64012;DHT22;50211;52.768;12.124;2022-09-12T04:38:06;10.10;99.90
64012;DHT22;50211;52.768;12.124;2022-09-12T04:40:31;10.00;99.90
64012;DHT22;50211;52.768;12.124;2022-09-12T04:42:57;10.00;99.90
64012;DHT22;50211;52.768;12.124;2022-09-12T04:45:23;9.90;99.90
64012;DHT22;50211;52.768;12.124;2022-09-12T04:47:48;9.90;99.90
64012;DHT22;50211;52.768;12.124;2022-09-12T04:50:14;9.90;99.90
64012;DHT22;50211;52.768;12.124;2022-09-12T04:52:42;9.90;99.90
64012;DHT22;50211;52.768;12.124;2022-09-12T04:55:08;9.90;99.90
64012;DHT22;50211;52.768;12.124;2022-09-12T04:57:34;10.00;99.90
64012;DHT22;50211;52.768;12.124;2022-09-12T05:00:01;10.00;99.90
64012;DHT22;50211;52.768;12.124;2022-09-12T05:02:29;10.00;99.90
64012;DHT22;50211;52.768;12.124;2022-09-12T05:04:55;10.00;99.90
64012;DHT22;50211;52.768;12.124;2022-09-12T05:07:20;10.00;99.90
64012;DHT22;50211;52.768;12.124;2022-09-12T05:09:46;10.00;99.90
64012;DHT22;50211;52.768;12.124;2022-09-12T05:12:11;10.00;99.90
64012;DHT22;50211;52.768;12.124;2022-09-12T05:14:39;9.80;99.90
64012;DHT22;50211;52.768;12.124;2022-09-12T05:17:05;9.80;99.90
64012;DHT22;50211;52.768;12.124;2022-09-12T05:19:31;9.80;99.90
64012;DHT22;50211;52.768;12.124;2022-09-12T05:21:58;9.90;99.90
64012;DHT22;50211;52.768;12.124;2022-09-12T05:24:23;10.10;99.90
64012;DHT22;50211;52.768;12.124;2022-09-12T05:26:51;10.20;99.90
64012;DHT22;50211;52.768;12.124;2022-09-12T05:29:17;10.30;99.90
64012;DHT22;50211;52.768;12.124;2022-09-12T05:31:43;10.40;99.90
64012;DHT22;50211;52.768;12.124;2022-09-12T05:34:09;10.50;99.90
64012;DHT22;50211;52.768;12.124;2022-09-12T05:36:35;10.60;99.90
64012;DHT22;50211;52.768;12.124;2022-09-12T05:39:04;10.60;99.90
64012;DHT22;50211;52.768;12.124;2022-09-12T05:41:31;10.70;99.90
64012;DHT22;50211;52.768;12.124;2022-09-12T05:44:02;10.80;99.90
64012;DHT22;50211;52.768;12.124;2022-09-12T05:46:30;10.80;99.90
64012;DHT22;50211;52.768;12.124;2022-09-12T05:48:56;10.80;99.90
64012;DHT22;50211;52.768;12.124;2022-09-12T05:51:27;10.80;99.90
64012;DHT22;50211;52.768;12.124;2022-09-12T05:53:57;10.90;99.90
64012;DHT22;50211;52.768;12.124;2022-09-12T05:56:25;11.00;99.90
64012;DHT22;50211;52.768;12.124;2022-09-12T06:01:18;11.10;99.90
64012;DHT22;50211;52.768;12.124;2022-09-12T06:03:46;11.20;99.90
64012;DHT22;50211;52.768;12.124;2022-09-12T06:06:13;11.10;99.90
64012;DHT22;50211;52.768;12.124;2022-09-12T06:08:40;11.20;99.90
64012;DHT22;50211;52.768;12.124;2022-09-12T06:11:07;11.30;99.90
64012;DHT22;50211;52.768;12.124;2022-09-12T06:13:35;11.30;99.90
64012;DHT22;50211;52.768;12.124;2022-09-12T06:16:13;11.40;99.90
64012;DHT22;50211;52.768;12.124;2022-09-12T06:18:40;11.50;99.90
64012;DHT22;50211;52.768;12.124;2022-09-12T06:21:10;11.60;99.90
64012;DHT22;50211;52.768;12.124;2022-09-12T06:23:37;11.70;99.90
64012;DHT22;50211;52.768;12.124;2022-09-12T06:26:04;11.90;99.90
64012;DHT22;50211;52.768;12.124;2022-09-12T06:28:31;12.00;99.90
64012;DHT22;50211;52.768;12.124;2022-09-12T06:31:01;12.10;99.90
64012;DHT22;50211;52.768;12.124;2022-09-12T06:33:29;12.20;99.90
64012;DHT22;50211;52.768;12.124;2022-09-12T06:36:01;12.30;99.90
64012;DHT22;50211;52.768;12.124;2022-09-12T06:38:27;12.40;99.90
64012;DHT22;50211;52.768;12.124;2022-09-12T06:40:53;12.50;99.90
64012;DHT22;50211;52.768;12.124;2022-09-12T06:43:18;12.60;99.90
64012;DHT22;50211;52.768;12.124;2022-09-12T06:45:50;12.80;99.90
64012;DHT22;50211;52.768;12.124;2022-09-12T06:48:16;13.00;99.90
64012;DHT22;50211;52.768;12.124;2022-09-12T06:50:42;13.10;99.90
64012;DHT22;50211;52.768;12.124;2022-09-12T06:53:10;13.30;99.90
64012;DHT22;50211;52.768;12.124;2022-09-12T06:55:36;13.40;99.90
64012;DHT22;50211;52.768;12.124;2022-09-12T06:58:01;13.60;99.90
64012;DHT22;50211;52.768;12.124;2022-09-12T07:00:27;13.70;99.90
64012;DHT22;50211;52.768;12.124;2022-09-12T07:02:53;13.90;99.90
64012;DHT22;50211;52.768;12.124;2022-09-12T07:05:20;14.00;99.90
64012;DHT22;50211;52.768;12.124;2022-09-12T07:07:46;14.20;99.90
64012;DHT22;50211;52.768;12.124;2022-09-12T07:10:12;14.30;99.90
64012;DHT22;50211;52.768;12.124;2022-09-12T07:12:37;14.50;99.90
64012;DHT22;50211;52.768;12.124;2022-09-12T07:15:05;14.70;99.90
64012;DHT22;50211;52.768;12.124;2022-09-12T07:17:31;14.90;99.90
64012;DHT22;50211;52.768;12.124;2022-09-12T07:19:58;15.10;99.90
64012;DHT22;50211;52.768;12.124;2022-09-12T07:22:24;15.30;99.90
64012;DHT22;50211;52.768;12.124;2022-09-12T07:24:49;15.50;99.90
64012;DHT22;50211;52.768;12.124;2022-09-12T07:27:15;15.60;99.90
64012;DHT22;50211;52.768;12.124;2022-09-12T07:29:40;15.80;99.90
64012;DHT22;50211;52.768;12.124;2022-09-12T07:32:08;15.90;99.90
64012;DHT22;50211;52.768;12.124;2022-09-12T07:34:36;16.20;99.90
64012;DHT22;50211;52.768;12.124;2022-09-12T07:37:02;16.30;99.90
64012;DHT22;50211;52.768;12.124;2022-09-12T07:39:27;16.60;99.90
64012;DHT22;50211;52.768;12.124;2022-09-12T07:41:53;16.80;99.90
64012;DHT22;50211;52.768;12.124;2022-09-12T07:44:19;17.00;99.90
64012;DHT22;50211;52.768;12.124;2022-09-12T07:46:46;17.20;99.90
64012;DHT22;50211;52.768;12.124;2022-09-12T07:49:11;17.40;99.90
64012;DHT22;50211;52.768;12.124;2022-09-12T07:51:37;17.50;99.90
64012;DHT22;50211;52.768;12.124;2022-09-12T07:54:08;17.80;99.90
64012;DHT22;50211;52.768;12.124;2022-09-12T07:56:34;17.90;99.90
64012;DHT22;50211;52.768;12.124;2022-09-12T07:58:59;18.00;99.90
64012;DHT22;50211;52.768;12.124;2022-09-12T08:01:25;18.00;99.90
64012;DHT22;50211;52.768;12.124;2022-09-12T08:03:56;18.20;99.90
64012;DHT22;50211;52.768;12.124;2022-09-12T08:06:22;18.40;99.90
64012;DHT22;50211;52.768;12.124;2022-09-12T08:08:49;18.60;99.90
64012;DHT22;50211;52.768;12.124;2022-09-12T08:11:17;18.80;99.90
64012;DHT22;50211;52.768;12.124;2022-09-12T08:13:43;19.10;99.90
64012;DHT22;50211;52.768;12.124;2022-09-12T08:16:14;19.00;99.90
64012;DHT22;50211;52.768;12.124;2022-09-12T08:18:40;19.30;99.90
64012;DHT22;50211;52.768;12.124;2022-09-12T08:21:11;19.60;99.90
64012;DHT22;50211;52.768;12.124;2022-09-12T08:23:37;19.80;99.90
64012;DHT22;50211;52.768;12.124;2022-09-12T08:26:03;19.90;99.90
64012;DHT22;50211;52.768;12.124;2022-09-12T08:28:31;20.20;99.90
64012;DHT22;50211;52.768;12.124;2022-09-12T08:31:07;20.30;99.90
64012;DHT22;50211;52.768;12.124;2022-09-12T08:33:34;20.30;99.90
64012;DHT22;50211;52.768;12.124;2022-09-12T08:36:08;20.40;99.90
64012;DHT22;50211;52.768;12.124;2022-09-12T08:38:35;20.50;99.90
64012;DHT22;50211;52.768;12.124;2022-09-12T08:41:12;20.60;99.90
64012;DHT22;50211;52.768;12.124;2022-09-12T08:43:58;20.40;99.90
64012;DHT22;50211;52.768;12.124;2022-09-12T08:46:33;20.10;99.90
64012;DHT22;50211;52.768;12.124;2022-09-12T08:49:01;19.60;99.90
64012;DHT22;50211;52.768;12.124;2022-09-12T08:51:30;19.40;99.90
64012;DHT22;50211;52.768;12.124;2022-09-12T08:53:57;19.80;99.90
64012;DHT22;50211;52.768;12.124;2022-09-12T08:56:25;20.00;99.90
64012;DHT22;50211;52.768;12.124;2022-09-12T08:58:51;20.30;99.90
64012;DHT22;50211;52.768;12.124;2022-09-12T09:01:23;20.70;99.90
64012;DHT22;50211;52.768;12.124;2022-09-12T09:04:19;21.20;99.90
64012;DHT22;50211;52.768;12.124;2022-09-12T09:09:53;20.90;99.90
64012;DHT22;50211;52.768;12.124;2022-09-12T09:12:34;21.00;99.90
64012;DHT22;50211;52.768;12.124;2022-09-12T09:18:07;21.50;99.90
64012;DHT22;50211;52.768;12.124;2022-09-12T09:20:51;21.70;99.90
64012;DHT22;50211;52.768;12.124;2022-09-12T09:23:26;21.60;99.90
64012;DHT22;50211;52.768;12.124;2022-09-12T09:26:16;21.60;99.90
64012;DHT22;50211;52.768;12.124;2022-09-12T09:28:46;21.40;99.90
64012;DHT22;50211;52.768;12.124;2022-09-12T09:31:24;21.20;99.90
64012;DHT22;50211;52.768;12.124;2022-09-12T09:33:52;21.30;99.90
64012;DHT22;50211;52.768;12.124;2022-09-12T09:39:19;20.40;99.90
64012;DHT22;50211;52.768;12.124;2022-09-12T09:44:21;19.80;99.90
64012;DHT22;50211;52.768;12.124;2022-09-12T09:46:49;19.70;99.90
64012;DHT22;50211;52.768;12.124;2022-09-12T09:49:17;19.80;99.90
64012;DHT22;50211;52.768;12.124;2022-09-12T09:51:43;20.00;99.90
64012;DHT22;50211;52.768;12.124;2022-09-12T09:54:19;20.20;99.90
64012;DHT22;50211;52.768;12.124;2022-09-12T09:56:45;20.50;99.90
64012;DHT22;50211;52.768;12.124;2022-09-12T09:59:15;20.50;99.90
64012;DHT22;50211;52.768;12.124;2022-09-12T10:01:58;20.20;99.90
64012;DHT22;50211;52.768;12.124;2022-09-12T10:04:30;19.90;99.90
64012;DHT22;50211;52.768;12.124;2022-09-12T10:06:57;19.70;99.90
64012;DHT22;50211;52.768;12.124;2022-09-12T10:11:51;19.50;99.90
64012;DHT22;50211;52.768;12.124;2022-09-12T10:14:56;19.40;99.90
64012;DHT22;50211;52.768;12.124;2022-09-12T10:17:31;19.40;99.90
64012;DHT22;50211;52.768;12.124;2022-09-12T10:20:03;19.60;99.90
64012;DHT22;50211;52.768;12.124;2022-09-12T10:22:29;19.50;99.90
64012;DHT22;50211;52.768;12.124;2022-09-12T10:24:57;19.50;99.90
64012;DHT22;50211;52.768;12.124;2022-09-12T10:27:30;19.50;99.90
64012;DHT22;50211;52.768;12.124;2022-09-12T10:30:06;19.60;99.90
64012;DHT22;50211;52.768;12.124;2022-09-12T10:32:48;20.00;99.90
64012;DHT22;50211;52.768;12.124;2022-09-12T10:35:26;20.10;99.90
64012;DHT22;50211;52.768;12.124;2022-09-12T10:37:59;20.40;99.90
64012;DHT22;50211;52.768;12.124;2022-09-12T10:40:29;20.60;99.90
64012;DHT22;50211;52.768;12.124;2022-09-12T10:42:59;20.60;99.90
64012;DHT22;50211;52.768;12.124;2022-09-12T10:45:33;20.70;99.90
64012;DHT22;50211;52.768;12.124;2022-09-12T10:48:02;21.10;99.90
64012;DHT22;50211;52.768;12.124;2022-09-12T10:50:39;21.40;99.90
64012;DHT22;50211;52.768;12.124;2022-09-12T10:53:23;21.60;99.90
64012;DHT22;50211;52.768;12.124;2022-09-12T10:56:08;21.50;99.90
64012;DHT22;50211;52.768;12.124;2022-09-12T10:58:47;21.40;99.90
64012;DHT22;50211;52.768;12.124;2022-09-12T11:01:40;21.20;99.90
64012;DHT22;50211;52.768;12.124;2022-09-12T11:07:16;21.00;99.90
64012;DHT22;50211;52.768;12.124;2022-09-12T11:10:17;20.80;99.90
64012;DHT22;50211;52.768;12.124;2022-09-12T11:12:53;20.80;99.90
64012;DHT22;50211;52.768;12.124;2022-09-12T11:20:59;21.60;99.90
64012;DHT22;50211;52.768;12.124;2022-09-12T11:23:46;21.50;99.90
64012;DHT22;50211;52.768;12.124;2022-09-12T11:26:26;21.60;99.90
64012;DHT22;50211;52.768;12.124;2022-09-12T11:32:09;21.70;99.90
64012;DHT22;50211;52.768;12.124;2022-09-12T11:35:43;21.80;99.90
64012;DHT22;50211;52.768;12.124;2022-09-12T11:38:13;21.80;99.90
64012;DHT22;50211;52.768;12.124;2022-09-12T11:40:51;21.90;99.90
64012;DHT22;50211;52.768;12.124;2022-09-12T11:46:21;22.00;99.90
64012;DHT22;50211;52.768;12.124;2022-09-12T11:51:25;22.20;99.90
64012;DHT22;50211;52.768;12.124;2022-09-12T11:56:42;22.20;99.90
64012;DHT22;50211;52.768;12.124;2022-09-12T12:02:02;22.40;99.90
64012;DHT22;50211;52.768;12.124;2022-09-12T12:04:40;22.60;99.90
64012;DHT22;50211;52.768;12.124;2022-09-12T12:07:10;22.70;99.90
64012;DHT22;50211;52.768;12.124;2022-09-12T12:09:48;22.70;99.90
64012;DHT22;50211;52.768;12.124;2022-09-12T12:12:20;22.70;99.90
64012;DHT22;50211;52.768;12.124;2022-09-12T12:14:48;22.80;99.90
64012;DHT22;50211;52.768;12.124;2022-09-12T12:17:17;22.70;99.90
64012;DHT22;50211;52.768;12.124;2022-09-12T12:19:44;22.60;99.90
64012;DHT22;50211;52.768;12.124;2022-09-12T12:22:21;22.50;99.90
64012;DHT22;50211;52.768;12.124;2022-09-12T12:28:04;22.10;99.90
64012;DHT22;50211;52.768;12.124;2022-09-12T12:38:30;21.80;99.90
64012;DHT22;50211;52.768;12.124;2022-09-12T12:43:48;21.80;99.90
64012;DHT22;50211;52.768;12.124;2022-09-12T12:46:15;21.80;99.90
64012;DHT22;50211;52.768;12.124;2022-09-12T12:49:09;21.70;99.90
64012;DHT22;50211;52.768;12.124;2022-09-12T12:51:55;21.80;99.90
64012;DHT22;50211;52.768;12.124;2022-09-12T12:54:31;21.90;99.90
64012;DHT22;50211;52.768;12.124;2022-09-12T12:59:43;21.80;99.90
64012;DHT22;50211;52.768;12.124;2022-09-12T13:02:18;21.60;99.90
64012;DHT22;50211;52.768;12.124;2022-09-12T13:04:46;21.70;99.90
64012;DHT22;50211;52.768;12.124;2022-09-12T13:07:25;21.60;99.90
64012;DHT22;50211;52.768;12.124;2022-09-12T13:09:51;21.70;99.90
64012;DHT22;50211;52.768;12.124;2022-09-12T13:12:19;21.80;99.90
64012;DHT22;50211;52.768;12.124;2022-09-12T13:20:17;21.70;99.90
64012;DHT22;50211;52.768;12.124;2022-09-12T13:22:46;21.80;99.90
64012;DHT22;50211;52.768;12.124;2022-09-12T13:25:32;21.70;99.90
64012;DHT22;50211;52.768;12.124;2022-09-12T13:30:39;21.60;99.90
64012;DHT22;50211;52.768;12.124;2022-09-12T13:33:24;21.60;99.90
64012;DHT22;50211;52.768;12.124;2022-09-12T13:38:42;21.40;99.90
64012;DHT22;50211;52.768;12.124;2022-09-12T13:44:01;21.40;99.90
64012;DHT22;50211;52.768;12.124;2022-09-12T13:46:30;21.40;99.90
64012;DHT22;50211;52.768;12.124;2022-09-12T13:48:58;21.60;99.90
64012;DHT22;50211;52.768;12.124;2022-09-12T13:51:28;21.70;99.90
64012;DHT22;50211;52.768;12.124;2022-09-12T13:53:56;21.70;99.90
64012;DHT22;50211;52.768;12.124;2022-09-12T13:56:23;21.90;99.90
64012;DHT22;50211;52.768;12.124;2022-09-12T13:58:56;21.80;99.90
64012;DHT22;50211;52.768;12.124;2022-09-12T14:01:24;21.80;99.90
64012;DHT22;50211;52.768;12.124;2022-09-12T14:04:07;21.80;99.90
64012;DHT22;50211;52.768;12.124;2022-09-12T14:06:57;21.90;99.90
64012;DHT22;50211;52.768;12.124;2022-09-12T14:09:26;21.80;99.90
64012;DHT22;50211;52.768;12.124;2022-09-12T14:11:54;21.60;99.90
64012;DHT22;50211;52.768;12.124;2022-09-12T14:14:32;21.50;99.90
64012;DHT22;50211;52.768;12.124;2022-09-12T14:16:58;21.50;99.90
64012;DHT22;50211;52.768;12.124;2022-09-12T14:19:25;21.40;99.90
64012;DHT22;50211;52.768;12.124;2022-09-12T14:21:52;21.30;99.90
64012;DHT22;50211;52.768;12.124;2022-09-12T14:24:19;21.30;99.90
64012;DHT22;50211;52.768;12.124;2022-09-12T14:26:47;21.20;99.90
64012;DHT22;50211;52.768;12.124;2022-09-12T14:29:15;21.20;99.90
64012;DHT22;50211;52.768;12.124;2022-09-12T14:31:41;21.30;99.90
64012;DHT22;50211;52.768;12.124;2022-09-12T14:34:14;21.20;99.90
64012;DHT22;50211;52.768;12.124;2022-09-12T14:36:52;21.20;99.90
64012;DHT22;50211;52.768;12.124;2022-09-12T14:39:36;21.10;99.90
64012;DHT22;50211;52.768;12.124;2022-09-12T14:42:10;21.00;99.90
64012;DHT22;50211;52.768;12.124;2022-09-12T14:44:37;21.00;99.90
64012;DHT22;50211;52.768;12.124;2022-09-12T14:47:12;20.90;99.90
64012;DHT22;50211;52.768;12.124;2022-09-12T14:49:40;20.70;99.90
64012;DHT22;50211;52.768;12.124;2022-09-12T14:52:14;20.70;99.90
64012;DHT22;50211;52.768;12.124;2022-09-12T14:54:56;20.60;99.90
64012;DHT22;50211;52.768;12.124;2022-09-12T14:57:39;20.60;99.90
64012;DHT22;50211;52.768;12.124;2022-09-12T15:00:17;20.50;99.90
64012;DHT22;50211;52.768;12.124;2022-09-12T15:02:46;20.40;99.90
64012;DHT22;50211;52.768;12.124;2022-09-12T15:07:51;20.30;99.90
64012;DHT22;50211;52.768;12.124;2022-09-12T15:10:35;20.30;99.90
64012;DHT22;50211;52.768;12.124;2022-09-12T15:15:33;20.30;99.90
64012;DHT22;50211;52.768;12.124;2022-09-12T15:17:59;20.30;99.90
64012;DHT22;50211;52.768;12.124;2022-09-12T15:20:24;20.30;99.90
64012;DHT22;50211;52.768;12.124;2022-09-12T15:22:50;20.30;99.90
64012;DHT22;50211;52.768;12.124;2022-09-12T15:25:17;20.30;99.90
64012;DHT22;50211;52.768;12.124;2022-09-12T15:27:43;20.20;99.90
64012;DHT22;50211;52.768;12.124;2022-09-12T15:30:09;20.20;99.90
64012;DHT22;50211;52.768;12.124;2022-09-12T15:32:37;20.20;99.90
64012;DHT22;50211;52.768;12.124;2022-09-12T15:35:15;20.30;99.90
64012;DHT22;50211;52.768;12.124;2022-09-12T15:37:40;20.40;99.90
64012;DHT22;50211;52.768;12.124;2022-09-12T15:40:07;20.50;99.90
64012;DHT22;50211;52.768;12.124;2022-09-12T15:42:33;20.50;99.90
64012;DHT22;50211;52.768;12.124;2022-09-12T15:44:59;20.60;99.90
64012;DHT22;50211;52.768;12.124;2022-09-12T15:47:24;20.60;99.90
64012;DHT22;50211;52.768;12.124;2022-09-12T15:49:50;20.60;99.90
64012;DHT22;50211;52.768;12.124;2022-09-12T15:52:16;20.60;99.90
64012;DHT22;50211;52.768;12.124;2022-09-12T15:54:42;20.60;99.90
64012;DHT22;50211;52.768;12.124;2022-09-12T15:57:08;20.60;99.90
64012;DHT22;50211;52.768;12.124;2022-09-12T15:59:34;20.60;99.90
64012;DHT22;50211;52.768;12.124;2022-09-12T16:01:59;20.40;99.90
64012;DHT22;50211;52.768;12.124;2022-09-12T16:04:27;20.30;99.90
64012;DHT22;50211;52.768;12.124;2022-09-12T16:06:54;20.20;99.90
64012;DHT22;50211;52.768;12.124;2022-09-12T16:09:20;20.20;99.90
64012;DHT22;50211;52.768;12.124;2022-09-12T16:11:46;20.30;99.90
64012;DHT22;50211;52.768;12.124;2022-09-12T16:14:16;20.30;99.90
64012;DHT22;50211;52.768;12.124;2022-09-12T16:16:42;20.30;99.90
64012;DHT22;50211;52.768;12.124;2022-09-12T16:19:09;20.30;99.90
64012;DHT22;50211;52.768;12.124;2022-09-12T16:21:36;20.20;99.90
64012;DHT22;50211;52.768;12.124;2022-09-12T16:24:02;20.20;99.90
64012;DHT22;50211;52.768;12.124;2022-09-12T16:26:27;20.10;99.90
64012;DHT22;50211;52.768;12.124;2022-09-12T16:28:54;20.10;99.90
64012;DHT22;50211;52.768;12.124;2022-09-12T16:31:20;20.00;99.90
64012;DHT22;50211;52.768;12.124;2022-09-12T16:33:45;19.80;99.90
64012;DHT22;50211;52.768;12.124;2022-09-12T16:36:13;19.70;99.90
64012;DHT22;50211;52.768;12.124;2022-09-12T16:38:50;19.70;99.90
64012;DHT22;50211;52.768;12.124;2022-09-12T16:41:17;19.60;99.90
64012;DHT22;50211;52.768;12.124;2022-09-12T16:43:43;19.60;99.90
64012;DHT22;50211;52.768;12.124;2022-09-12T16:46:11;19.60;99.90
64012;DHT22;50211;52.768;12.124;2022-09-12T16:48:44;19.60;99.90
64012;DHT22;50211;52.768;12.124;2022-09-12T16:51:10;19.50;99.90
64012;DHT22;50211;52.768;12.124;2022-09-12T16:53:37;19.50;99.90
64012;DHT22;50211;52.768;12.124;2022-09-12T16:56:04;19.40;99.90
64012;DHT22;50211;52.768;12.124;2022-09-12T16:58:35;19.40;99.90
64012;DHT22;50211;52.768;12.124;2022-09-12T17:01:03;19.30;99.90
64012;DHT22;50211;52.768;12.124;2022-09-12T17:03:29;19.20;99.90
64012;DHT22;50211;52.768;12.124;2022-09-12T17:05:59;19.10;99.90
64012;DHT22;50211;52.768;12.124;2022-09-12T17:08:26;19.00;99.90
64012;DHT22;50211;52.768;12.124;2022-09-12T17:10:51;18.90;99.90
64012;DHT22;50211;52.768;12.124;2022-09-12T17:13:16;18.80;99.90
64012;DHT22;50211;52.768;12.124;2022-09-12T17:15:42;18.70;99.90
64012;DHT22;50211;52.768;12.124;2022-09-12T17:18:07;18.60;99.90
64012;DHT22;50211;52.768;12.124;2022-09-12T17:20:36;18.50;99.90
64012;DHT22;50211;52.768;12.124;2022-09-12T17:23:01;18.30;99.90
64012;DHT22;50211;52.768;12.124;2022-09-12T17:25:27;18.20;99.90